createdAt,value
2018-03-26T00:00:09.704Z,22.52
2018-03-26T00:17:07.670Z,24.27
2018-03-26T00:22:38.316Z,21.02
2018-03-26T00:28:03.241Z,22.23
2018-03-26T00:33:21.708Z,21.30
2018-03-26T00:38:33.517Z,22.58
2018-03-26T00:41:25.344Z,24.17
2018-03-26T00:44:04.574Z,23.45
2018-03-26T00:46:40.945Z,22.08
2018-03-26T00:49:13.313Z,22.20
2018-03-26T00:51:59.105Z,23.17
2018-03-26T00:54:48.003Z,22.83
2018-03-26T01:04:31.753Z,20.20
2018-03-26T01:14:33.056Z,22.58
2018-03-26T01:19:57.770Z,26.77
2018-03-26T01:22:40.994Z,25.45
2018-03-26T01:25:18.790Z,26.00
2018-03-26T01:39:04.244Z,25.37
2018-03-26T01:41:46.008Z,26.33
2018-03-26T01:44:24.246Z,26.60
2018-03-26T01:49:43.577Z,25.05
2018-03-26T01:55:45.007Z,27.05
2018-03-26T01:58:25.571Z,25.00
2018-03-26T02:01:00.913Z,27.67
2018-03-26T02:03:42.331Z,26.55
2018-03-26T02:06:43.137Z,26.70
2018-03-26T02:09:38.579Z,25.10
2018-03-26T02:15:06.950Z,25.23
2018-03-26T02:17:57.185Z,22.62
2018-03-26T02:20:41.108Z,23.87
2018-03-26T02:25:56.082Z,27.52
2018-03-26T02:28:49.433Z,29.90
2018-03-26T02:31:35.033Z,28.20
2018-03-26T02:37:00.870Z,28.65
2018-03-26T02:39:45.824Z,26.87
2018-03-26T02:42:25.173Z,28.75
2018-03-26T02:58:30.492Z,28.65
2018-03-26T03:04:46.699Z,30.95
2018-03-26T03:07:21.645Z,27.77
2018-03-26T03:10:06.837Z,30.55
2018-03-26T03:15:37.081Z,31.95
2018-03-26T03:21:33.314Z,31.48
2018-03-26T03:24:04.786Z,28.65
2018-03-26T03:26:50.409Z,28.45
2018-03-26T03:29:33.575Z,27.80
2018-03-26T03:32:15.474Z,29.15
2018-03-26T03:35:02.383Z,29.12
2018-03-26T03:38:05.168Z,28.60
2018-03-26T03:40:48.292Z,30.67
2018-03-26T03:43:37.049Z,29.67
2018-03-26T03:46:24.018Z,29.45
2018-03-26T03:49:02.840Z,31.02
2018-03-26T03:51:38.189Z,31.15
2018-03-26T03:57:20.045Z,32.10
2018-03-26T03:59:55.080Z,30.00
2018-03-26T04:05:15.082Z,29.67
2018-03-26T04:07:49.760Z,29.80
2018-03-26T04:10:44.963Z,30.58
2018-03-26T04:19:12.929Z,31.33
2018-03-26T04:28:20.190Z,28.87
2018-03-26T04:33:48.454Z,27.25
2018-03-26T04:42:34.589Z,27.10
2018-03-26T04:45:19.250Z,28.30
2018-03-26T04:50:48.980Z,31.25
2018-03-26T04:57:54.801Z,29.00
2018-03-26T05:00:37.089Z,29.33
2018-03-26T05:06:08.131Z,33.58
2018-03-26T05:08:52.680Z,29.52
2018-03-26T05:12:04.986Z,29.20
2018-03-26T05:14:45.549Z,32.88
2018-03-26T05:33:43.207Z,35.22
2018-03-26T05:39:16.012Z,33.35
2018-03-26T05:41:52.392Z,33.17
2018-03-26T05:50:35.162Z,33.75
2018-03-26T05:56:02.434Z,31.90
2018-03-26T06:01:42.451Z,34.53
2018-03-26T06:04:19.693Z,32.58
2018-03-26T06:06:59.438Z,35.33
2018-03-26T06:12:24.048Z,33.33
2018-03-26T06:14:57.083Z,34.65
2018-03-26T06:17:40.980Z,31.73
2018-03-26T06:24:15.693Z,31.20
2018-03-26T06:26:59.576Z,32.95
2018-03-26T06:29:42.033Z,32.95
2018-03-26T06:32:32.277Z,35.20
2018-03-26T06:35:03.431Z,33.65
2018-03-26T06:41:29.471Z,32.40
2018-03-26T06:47:12.670Z,32.00
2018-03-26T06:49:57.700Z,29.25
2018-03-26T06:52:28.825Z,31.02
2018-03-26T06:55:00.599Z,32.33
2018-03-26T06:57:36.956Z,32.65
2018-03-26T07:00:17.881Z,32.83
2018-03-26T07:02:58.241Z,31.17
2018-03-26T07:08:33.882Z,32.33
2018-03-26T07:11:11.561Z,31.75
2018-03-26T07:13:49.352Z,33.15
2018-03-26T07:16:24.651Z,32.65
2018-03-26T07:25:12.068Z,32.63
2018-03-26T07:28:13.907Z,30.85
2018-03-26T07:34:49.192Z,32.13
2018-03-26T07:48:06.054Z,29.87
2018-03-26T07:53:43.860Z,29.52
2018-03-26T07:56:24.116Z,30.30
2018-03-26T08:01:48.544Z,31.90
2018-03-26T08:04:40.965Z,33.75
2018-03-26T08:07:23.835Z,32.72
2018-03-26T08:09:57.999Z,30.98
2018-03-26T08:12:51.614Z,30.10
2018-03-26T08:15:27.737Z,31.45
2018-03-26T08:18:06.385Z,31.67
2018-03-26T08:20:46.116Z,32.13
2018-03-26T08:23:26.738Z,28.98
2018-03-26T08:26:06.016Z,29.63
2018-03-26T08:44:09.151Z,28.48
2018-03-26T08:46:50.430Z,28.60
2018-03-26T08:55:06.657Z,27.90
2018-03-26T08:58:01.336Z,28.42
2018-03-26T09:03:27.641Z,28.83
2018-03-26T09:06:06.957Z,29.23
2018-03-26T09:08:45.643Z,28.17
2018-03-26T09:11:41.597Z,26.75
2018-03-26T09:14:30.009Z,28.33
2018-03-26T09:17:03.825Z,28.98
2018-03-26T09:22:18.403Z,30.55
2018-03-26T09:25:12.371Z,30.60
2018-03-26T09:27:53.748Z,29.23
2018-03-26T09:34:02.597Z,29.40
2018-03-26T09:36:48.913Z,31.60
2018-03-26T09:39:25.666Z,29.87
2018-03-26T09:42:12.372Z,30.55
2018-03-26T09:48:03.018Z,30.30
2018-03-26T09:51:02.218Z,27.77
2018-03-26T09:53:41.047Z,28.87
2018-03-26T09:56:14.538Z,29.73
2018-03-26T09:58:52.849Z,28.87
2018-03-26T10:09:04.285Z,28.75
2018-03-26T10:11:41.572Z,30.02
2018-03-26T10:14:38.932Z,27.30
2018-03-26T10:17:19.188Z,28.83
2018-03-26T10:19:55.914Z,27.00
2018-03-26T10:22:43.987Z,30.85
2018-03-26T10:25:27.793Z,28.45
2018-03-26T10:28:05.849Z,28.90
2018-03-26T10:30:50.088Z,31.25
2018-03-26T10:33:35.724Z,28.73
2018-03-26T10:39:53.285Z,32.05
2018-03-26T10:42:31.240Z,29.12
2018-03-26T10:45:09.173Z,32.03
2018-03-26T10:47:42.466Z,31.87
2018-03-26T10:50:17.805Z,32.92
2018-03-26T10:53:18.211Z,30.92
2018-03-26T10:56:05.759Z,30.92
2018-03-26T10:58:47.427Z,33.17
2018-03-26T11:01:25.944Z,31.35
2018-03-26T11:04:09.775Z,31.02
2018-03-26T11:06:55.162Z,29.70
2018-03-26T11:09:39.732Z,32.13
2018-03-26T11:12:16.409Z,31.05
2018-03-26T11:14:58.710Z,31.55
2018-03-26T11:23:33.365Z,28.15
2018-03-26T11:26:06.998Z,30.30
2018-03-26T11:28:40.770Z,30.17
2018-03-26T11:31:16.014Z,30.42
2018-03-26T11:33:49.923Z,28.77
2018-03-26T11:36:23.772Z,29.05
2018-03-26T11:39:00.185Z,31.98
2018-03-26T11:41:33.579Z,31.05
2018-03-26T11:44:08.715Z,31.20
2018-03-26T11:46:40.573Z,28.10
2018-03-26T11:49:28.202Z,29.58
2018-03-26T11:52:00.800Z,30.30
2018-03-26T11:57:40.269Z,28.33
2018-03-26T12:03:27.468Z,29.95
2018-03-26T12:06:12.876Z,29.95
2018-03-26T12:08:56.005Z,30.48
2018-03-26T12:11:38.204Z,30.17
2018-03-26T12:14:18.319Z,28.45
2018-03-26T12:19:59.757Z,30.23
2018-03-26T12:25:35.385Z,29.63
2018-03-26T12:31:31.215Z,29.43
2018-03-26T12:34:31.855Z,31.60
2018-03-26T12:40:23.968Z,30.67
2018-03-26T12:42:56.610Z,31.80
2018-03-26T12:48:57.981Z,31.70
2018-03-26T12:54:49.867Z,30.90
2018-03-26T12:57:48.106Z,31.30
2018-03-26T13:00:28.738Z,30.10
2018-03-26T13:03:03.747Z,29.00
2018-03-26T13:05:57.477Z,31.50
2018-03-26T13:08:35.015Z,29.93
2018-03-26T13:11:12.608Z,30.07
2018-03-26T13:13:49.600Z,30.87
2018-03-26T13:16:24.432Z,30.53
2018-03-26T13:19:08.001Z,31.00
2018-03-26T13:21:50.713Z,28.70
2018-03-26T13:24:32.153Z,30.97
2018-03-26T13:30:00.041Z,30.43
2018-03-26T13:36:24.451Z,30.00
2018-03-26T13:38:58.973Z,31.40
2018-03-26T13:41:31.470Z,29.57
2018-03-26T13:44:10.895Z,30.10
2018-03-26T13:46:43.486Z,30.80
2018-03-26T13:49:35.184Z,30.00
2018-03-26T13:59:14.354Z,30.40
2018-03-26T14:02:21.579Z,28.45
2018-03-26T14:05:02.558Z,29.35
2018-03-26T14:13:59.731Z,26.10
2018-03-26T14:19:55.267Z,27.15
2018-03-26T14:22:30.839Z,27.02
2018-03-26T14:31:06.197Z,28.95
2018-03-26T14:33:43.382Z,28.05
2018-03-26T14:56:43.620Z,28.10
2018-03-26T14:59:40.529Z,28.08
2018-03-26T15:06:23.815Z,28.10
2018-03-26T15:09:25.049Z,26.87
2018-03-26T15:23:43.306Z,28.83
2018-03-26T15:26:20.114Z,27.40
2018-03-26T15:28:55.353Z,27.98
2018-03-26T15:31:35.523Z,29.75
2018-03-26T15:34:10.018Z,27.60
2018-03-26T15:36:45.682Z,27.50
2018-03-26T15:39:28.467Z,27.98
2018-03-26T15:47:38.364Z,25.05
2018-03-26T15:50:13.220Z,27.02
2018-03-26T15:52:50.723Z,24.33
2018-03-26T15:58:08.255Z,26.33
2018-03-26T16:00:47.382Z,26.10
2018-03-26T16:03:39.312Z,23.60
2018-03-26T16:06:15.678Z,28.38
2018-03-26T16:14:40.188Z,24.83
2018-03-26T16:20:19.210Z,25.58
2018-03-26T16:28:55.726Z,23.73
2018-03-26T16:34:34.591Z,25.73
2018-03-26T16:39:55.022Z,24.17
2018-03-26T16:46:22.284Z,25.30
2018-03-26T16:51:39.814Z,24.40
2018-03-26T16:54:17.060Z,23.73
2018-03-26T16:56:53.424Z,24.30
2018-03-26T16:59:33.637Z,24.17
2018-03-26T17:04:50.401Z,24.90
2018-03-26T17:07:36.355Z,26.58
2018-03-26T17:10:16.819Z,25.37
2018-03-26T17:13:08.984Z,26.00
2018-03-26T17:15:51.960Z,28.95
2018-03-26T17:24:40.856Z,29.05
2018-03-26T17:27:18.623Z,30.60
2018-03-26T17:29:57.416Z,31.55
2018-03-26T17:32:48.012Z,30.58
2018-03-26T17:35:26.944Z,30.75
2018-03-26T17:38:08.104Z,32.97
2018-03-26T17:49:13.483Z,29.17
2018-03-26T17:51:57.243Z,30.37
2018-03-26T17:54:38.410Z,29.65
2018-03-26T17:57:24.932Z,31.80
2018-03-26T18:00:06.308Z,30.40
2018-03-26T18:02:52.914Z,29.17
2018-03-26T18:05:34.807Z,29.65
2018-03-26T18:08:24.284Z,29.55
2018-03-26T18:11:09.047Z,29.65
2018-03-26T18:14:36.921Z,30.10
2018-03-26T18:23:22.953Z,30.00
2018-03-26T18:28:58.011Z,31.80
2018-03-26T18:34:53.986Z,29.63
2018-03-26T18:37:39.947Z,31.55
2018-03-26T18:54:31.054Z,25.60
2018-03-26T18:57:06.299Z,26.40
2018-03-26T19:05:36.965Z,25.15
2018-03-26T19:11:33.729Z,25.15
2018-03-26T19:14:07.478Z,24.23
2018-03-26T19:16:42.915Z,25.15
2018-03-26T19:23:12.207Z,25.65
2018-03-26T19:25:51.875Z,25.70
2018-03-26T19:45:29.152Z,24.52
2018-03-26T19:48:20.884Z,25.52
2018-03-26T19:51:09.744Z,24.98
2018-03-26T19:54:11.988Z,23.87
2018-03-26T19:57:01.117Z,26.75
2018-03-26T20:02:48.214Z,24.00
2018-03-26T20:05:26.294Z,24.90
2018-03-26T20:08:16.101Z,26.12
2018-03-26T20:11:08.228Z,25.20
2018-03-26T20:13:44.501Z,26.25
2018-03-26T20:16:20.048Z,25.65
2018-03-26T20:19:00.802Z,25.65
2018-03-26T20:24:37.491Z,26.40
2018-03-26T20:34:51.587Z,25.60
2018-03-26T20:37:49.116Z,27.40
2018-03-26T20:40:37.896Z,28.27
2018-03-26T20:46:18.887Z,27.42
2018-03-26T20:48:54.471Z,28.67
2018-03-26T20:54:18.425Z,32.33
2018-03-26T20:57:02.309Z,30.40
2018-03-26T20:59:46.205Z,31.30
2018-03-26T21:02:33.015Z,30.88
2018-03-26T21:05:08.191Z,30.98
2018-03-26T21:07:44.922Z,31.92
2018-03-26T21:10:19.908Z,31.70
2018-03-26T21:12:57.241Z,30.90
2018-03-26T21:15:46.875Z,32.33
2018-03-26T21:24:06.235Z,33.60
2018-03-26T21:26:39.475Z,33.28
2018-03-26T21:29:28.047Z,34.53
2018-03-26T21:34:51.969Z,33.65
2018-03-26T21:37:29.614Z,32.65
2018-03-26T21:40:04.984Z,36.67
2018-03-26T21:42:42.475Z,36.78
2018-03-26T21:45:20.045Z,36.55
2018-03-26T21:52:15.490Z,38.70
2018-03-26T21:54:50.329Z,34.55
2018-03-26T21:57:35.091Z,38.25
2018-03-26T22:00:23.126Z,36.95
2018-03-26T22:02:56.519Z,37.40
2018-03-26T22:05:37.489Z,40.30
2018-03-26T22:08:21.850Z,40.15
2018-03-26T22:11:03.075Z,37.28
2018-03-26T22:13:36.521Z,38.53
2018-03-26T22:19:00.512Z,40.20
2018-03-26T22:21:43.341Z,40.35
2018-03-26T22:24:28.514Z,38.60
2018-03-26T22:27:27.083Z,37.90
2018-03-26T22:30:03.019Z,40.35
2018-03-26T22:32:37.582Z,37.33
2018-03-26T22:35:21.731Z,41.53
2018-03-26T22:37:57.073Z,39.50
2018-03-26T22:49:48.885Z,40.00
2018-03-26T22:52:26.561Z,39.58
2018-03-26T22:58:02.745Z,41.05
2018-03-26T23:06:09.352Z,40.80
2018-03-26T23:08:52.890Z,41.30
2018-03-26T23:11:26.684Z,42.47
2018-03-26T23:14:16.210Z,41.97
2018-03-26T23:19:59.410Z,41.22
2018-03-26T23:22:49.878Z,41.55
2018-03-26T23:25:33.321Z,41.42
2018-03-26T23:28:24.832Z,43.03
2018-03-26T23:31:14.270Z,41.85
2018-03-26T23:37:12.305Z,42.00
2018-03-26T23:39:59.780Z,41.72
2018-03-26T23:42:38.858Z,42.47
2018-03-26T23:45:15.322Z,42.20
2018-03-26T23:47:51.434Z,42.38
2018-03-26T23:50:29.922Z,43.08
2018-03-26T23:58:58.878Z,41.65
